sensor_id;sensor_type;location;lat;lon;timestamp;P1;durP1;ratioP1;P2;durP2;ratioP2
61407;SDS011;47274;43.054;25.146;2023-04-06T00:00:20;21.43;;;11.53;;
61407;SDS011;47274;43.054;25.146;2023-04-06T00:02:49;21.37;;;11.93;;
61407;SDS011;47274;43.054;25.146;2023-04-06T00:05:21;22.80;;;12.90;;
61407;SDS011;47274;43.054;25.146;2023-04-06T00:07:48;22.07;;;12.07;;
61407;SDS011;47274;43.054;25.146;2023-04-06T00:10:20;24.20;;;13.33;;
61407;SDS011;47274;43.054;25.146;2023-04-06T00:12:49;23.07;;;12.43;;
61407;SDS011;47274;43.054;25.146;2023-04-06T00:15:27;22.67;;;12.80;;
61407;SDS011;47274;43.054;25.146;2023-04-06T00:21:05;20.50;;;11.37;;
61407;SDS011;47274;43.054;25.146;2023-04-06T00:23:34;23.27;;;12.83;;
61407;SDS011;47274;43.054;25.146;2023-04-06T00:26:00;20.43;;;11.67;;
61407;SDS011;47274;43.054;25.146;2023-04-06T00:28:40;19.67;;;10.13;;
61407;SDS011;47274;43.054;25.146;2023-04-06T00:31:19;20.50;;;11.10;;
61407;SDS011;47274;43.054;25.146;2023-04-06T00:33:57;22.90;;;12.30;;
61407;SDS011;47274;43.054;25.146;2023-04-06T00:36:36;20.07;;;10.57;;
61407;SDS011;47274;43.054;25.146;2023-04-06T00:42:13;20.50;;;10.70;;
61407;SDS011;47274;43.054;25.146;2023-04-06T00:44:45;22.57;;;10.90;;
61407;SDS011;47274;43.054;25.146;2023-04-06T00:47:15;19.27;;;10.10;;
61407;SDS011;47274;43.054;25.146;2023-04-06T00:49:49;18.97;;;10.33;;
61407;SDS011;47274;43.054;25.146;2023-04-06T00:52:21;18.95;;;9.82;;
61407;SDS011;47274;43.054;25.146;2023-04-06T00:54:48;18.83;;;9.60;;
61407;SDS011;47274;43.054;25.146;2023-04-06T01:00:43;21.10;;;11.30;;
61407;SDS011;47274;43.054;25.146;2023-04-06T01:03:17;26.80;;;13.50;;
61407;SDS011;47274;43.054;25.146;2023-04-06T01:05:51;21.60;;;11.10;;
61407;SDS011;47274;43.054;25.146;2023-04-06T01:08:41;22.07;;;12.10;;
61407;SDS011;47274;43.054;25.146;2023-04-06T01:11:27;20.13;;;10.30;;
61407;SDS011;47274;43.054;25.146;2023-04-06T01:14:36;22.30;;;11.70;;
61407;SDS011;47274;43.054;25.146;2023-04-06T01:17:15;21.33;;;11.03;;
61407;SDS011;47274;43.054;25.146;2023-04-06T01:19:52;20.03;;;9.83;;
61407;SDS011;47274;43.054;25.146;2023-04-06T01:30:21;20.97;;;11.03;;
61407;SDS011;47274;43.054;25.146;2023-04-06T01:37:31;25.20;;;12.70;;
61407;SDS011;47274;43.054;25.146;2023-04-06T01:40:00;23.63;;;12.57;;
61407;SDS011;47274;43.054;25.146;2023-04-06T01:42:40;24.33;;;12.23;;
61407;SDS011;47274;43.054;25.146;2023-04-06T01:45:10;27.20;;;14.30;;
61407;SDS011;47274;43.054;25.146;2023-04-06T01:47:37;28.97;;;15.33;;
61407;SDS011;47274;43.054;25.146;2023-04-06T01:50:03;25.43;;;12.57;;
61407;SDS011;47274;43.054;25.146;2023-04-06T01:55:30;28.33;;;14.70;;
61407;SDS011;47274;43.054;25.146;2023-04-06T02:01:17;25.17;;;14.13;;
61407;SDS011;47274;43.054;25.146;2023-04-06T02:04:08;25.73;;;14.23;;
61407;SDS011;47274;43.054;25.146;2023-04-06T02:17:38;22.63;;;12.70;;
61407;SDS011;47274;43.054;25.146;2023-04-06T02:20:10;21.17;;;12.00;;
61407;SDS011;47274;43.054;25.146;2023-04-06T02:30:25;23.90;;;13.13;;
61407;SDS011;47274;43.054;25.146;2023-04-06T02:32:51;21.53;;;12.43;;
61407;SDS011;47274;43.054;25.146;2023-04-06T02:35:17;22.07;;;12.07;;
61407;SDS011;47274;43.054;25.146;2023-04-06T02:41:10;23.13;;;12.47;;
61407;SDS011;47274;43.054;25.146;2023-04-06T02:43:56;20.90;;;11.47;;
61407;SDS011;47274;43.054;25.146;2023-04-06T02:47:07;21.13;;;10.83;;
61407;SDS011;47274;43.054;25.146;2023-04-06T02:49:34;21.13;;;11.70;;
61407;SDS011;47274;43.054;25.146;2023-04-06T02:52:00;21.73;;;12.07;;
61407;SDS011;47274;43.054;25.146;2023-04-06T02:54:30;21.00;;;11.57;;
61407;SDS011;47274;43.054;25.146;2023-04-06T02:57:08;22.47;;;12.70;;
61407;SDS011;47274;43.054;25.146;2023-04-06T02:59:38;20.45;;;11.50;;
61407;SDS011;47274;43.054;25.146;2023-04-06T03:06:19;22.37;;;12.70;;
61407;SDS011;47274;43.054;25.146;2023-04-06T03:08:49;21.03;;;11.57;;
61407;SDS011;47274;43.054;25.146;2023-04-06T03:11:14;20.03;;;11.37;;
61407;SDS011;47274;43.054;25.146;2023-04-06T03:21:34;21.57;;;12.50;;
61407;SDS011;47274;43.054;25.146;2023-04-06T03:24:01;23.13;;;14.00;;
61407;SDS011;47274;43.054;25.146;2023-04-06T03:26:26;21.77;;;12.67;;
61407;SDS011;47274;43.054;25.146;2023-04-06T03:29:05;21.98;;;12.25;;
61407;SDS011;47274;43.054;25.146;2023-04-06T03:32:20;21.17;;;12.30;;
61407;SDS011;47274;43.054;25.146;2023-04-06T03:38:09;21.57;;;12.27;;
61407;SDS011;47274;43.054;25.146;2023-04-06T03:40:41;22.10;;;12.43;;
61407;SDS011;47274;43.054;25.146;2023-04-06T03:43:20;20.85;;;11.13;;
61407;SDS011;47274;43.054;25.146;2023-04-06T03:45:52;20.97;;;12.00;;
61407;SDS011;47274;43.054;25.146;2023-04-06T03:51:19;22.47;;;12.57;;
61407;SDS011;47274;43.054;25.146;2023-04-06T03:54:31;23.90;;;13.80;;
61407;SDS011;47274;43.054;25.146;2023-04-06T03:57:09;23.80;;;13.73;;
61407;SDS011;47274;43.054;25.146;2023-04-06T03:59:35;21.97;;;12.20;;
61407;SDS011;47274;43.054;25.146;2023-04-06T04:05:04;22.67;;;12.73;;
61407;SDS011;47274;43.054;25.146;2023-04-06T04:07:38;22.67;;;13.07;;
61407;SDS011;47274;43.054;25.146;2023-04-06T04:10:13;21.87;;;12.07;;
61407;SDS011;47274;43.054;25.146;2023-04-06T04:16:24;21.90;;;12.50;;
61407;SDS011;47274;43.054;25.146;2023-04-06T04:21:47;20.30;;;11.43;;
61407;SDS011;47274;43.054;25.146;2023-04-06T04:24:28;20.10;;;11.40;;
61407;SDS011;47274;43.054;25.146;2023-04-06T04:38:14;75.90;;;34.72;;
61407;SDS011;47274;43.054;25.146;2023-04-06T04:40:44;37.20;;;19.10;;
61407;SDS011;47274;43.054;25.146;2023-04-06T04:43:11;29.97;;;15.93;;
61407;SDS011;47274;43.054;25.146;2023-04-06T04:45:59;30.37;;;15.77;;
61407;SDS011;47274;43.054;25.146;2023-04-06T04:52:55;24.80;;;13.75;;
61407;SDS011;47274;43.054;25.146;2023-04-06T05:00:11;23.53;;;12.97;;
61407;SDS011;47274;43.054;25.146;2023-04-06T05:02:41;22.60;;;13.03;;
61407;SDS011;47274;43.054;25.146;2023-04-06T05:08:49;22.43;;;12.40;;
61407;SDS011;47274;43.054;25.146;2023-04-06T05:11:19;21.47;;;12.63;;
61407;SDS011;47274;43.054;25.146;2023-04-06T05:13:53;22.50;;;13.20;;
61407;SDS011;47274;43.054;25.146;2023-04-06T05:16:22;23.07;;;12.97;;
61407;SDS011;47274;43.054;25.146;2023-04-06T05:21:56;22.23;;;12.43;;
61407;SDS011;47274;43.054;25.146;2023-04-06T05:27:18;20.85;;;11.45;;
61407;SDS011;47274;43.054;25.146;2023-04-06T05:29:46;21.97;;;13.13;;
61407;SDS011;47274;43.054;25.146;2023-04-06T05:32:12;24.00;;;13.90;;
61407;SDS011;47274;43.054;25.146;2023-04-06T05:34:38;24.97;;;13.93;;
61407;SDS011;47274;43.054;25.146;2023-04-06T05:37:05;23.37;;;14.30;;
61407;SDS011;47274;43.054;25.146;2023-04-06T05:42:36;21.73;;;11.83;;
61407;SDS011;47274;43.054;25.146;2023-04-06T05:45:06;23.40;;;13.17;;
61407;SDS011;47274;43.054;25.146;2023-04-06T05:47:33;23.23;;;12.63;;
61407;SDS011;47274;43.054;25.146;2023-04-06T05:50:15;23.73;;;12.30;;
61407;SDS011;47274;43.054;25.146;2023-04-06T05:52:41;23.63;;;12.90;;
61407;SDS011;47274;43.054;25.146;2023-04-06T05:55:10;23.53;;;12.67;;
61407;SDS011;47274;43.054;25.146;2023-04-06T05:57:39;21.50;;;11.17;;
61407;SDS011;47274;43.054;25.146;2023-04-06T06:00:06;23.17;;;11.90;;
61407;SDS011;47274;43.054;25.146;2023-04-06T06:02:37;21.25;;;11.13;;
61407;SDS011;47274;43.054;25.146;2023-04-06T06:05:06;22.07;;;11.90;;
61407;SDS011;47274;43.054;25.146;2023-04-06T06:07:47;22.97;;;12.00;;
61407;SDS011;47274;43.054;25.146;2023-04-06T06:10:16;22.00;;;11.70;;
61407;SDS011;47274;43.054;25.146;2023-04-06T06:15:31;22.10;;;11.70;;
61407;SDS011;47274;43.054;25.146;2023-04-06T06:17:57;23.53;;;11.80;;
61407;SDS011;47274;43.054;25.146;2023-04-06T06:20:25;21.87;;;11.53;;
61407;SDS011;47274;43.054;25.146;2023-04-06T06:26:06;21.67;;;11.53;;
61407;SDS011;47274;43.054;25.146;2023-04-06T06:28:48;21.20;;;10.97;;
61407;SDS011;47274;43.054;25.146;2023-04-06T06:32:18;22.50;;;10.70;;
61407;SDS011;47274;43.054;25.146;2023-04-06T06:34:50;21.42;;;10.60;;
61407;SDS011;47274;43.054;25.146;2023-04-06T06:37:17;20.67;;;10.60;;
61407;SDS011;47274;43.054;25.146;2023-04-06T06:40:37;20.57;;;10.40;;
61407;SDS011;47274;43.054;25.146;2023-04-06T06:43:03;19.43;;;9.43;;
61407;SDS011;47274;43.054;25.146;2023-04-06T06:45:44;22.30;;;10.60;;
61407;SDS011;47274;43.054;25.146;2023-04-06T06:48:12;22.77;;;10.97;;
61407;SDS011;47274;43.054;25.146;2023-04-06T06:54:27;19.93;;;10.23;;
61407;SDS011;47274;43.054;25.146;2023-04-06T06:56:53;22.10;;;10.50;;
61407;SDS011;47274;43.054;25.146;2023-04-06T06:59:25;21.08;;;9.50;;
61407;SDS011;47274;43.054;25.146;2023-04-06T07:12:23;19.53;;;9.93;;
61407;SDS011;47274;43.054;25.146;2023-04-06T07:15:23;19.60;;;9.60;;
61407;SDS011;47274;43.054;25.146;2023-04-06T07:21:21;21.10;;;10.73;;
61407;SDS011;47274;43.054;25.146;2023-04-06T07:23:47;19.17;;;10.50;;
61407;SDS011;47274;43.054;25.146;2023-04-06T07:26:15;21.30;;;11.50;;
61407;SDS011;47274;43.054;25.146;2023-04-06T07:29:24;19.50;;;10.03;;
61407;SDS011;47274;43.054;25.146;2023-04-06T07:32:09;21.33;;;10.87;;
61407;SDS011;47274;43.054;25.146;2023-04-06T07:35:19;21.73;;;12.07;;
61407;SDS011;47274;43.054;25.146;2023-04-06T07:37:49;22.03;;;13.97;;
61407;SDS011;47274;43.054;25.146;2023-04-06T07:41:26;20.13;;;10.07;;
61407;SDS011;47274;43.054;25.146;2023-04-06T07:47:18;18.00;;;9.00;;
61407;SDS011;47274;43.054;25.146;2023-04-06T07:52:59;20.48;;;10.10;;
61407;SDS011;47274;43.054;25.146;2023-04-06T08:03:05;19.23;;;9.10;;
61407;SDS011;47274;43.054;25.146;2023-04-06T08:05:36;21.87;;;10.70;;
61407;SDS011;47274;43.054;25.146;2023-04-06T08:14:06;20.03;;;9.73;;
61407;SDS011;47274;43.054;25.146;2023-04-06T08:19:29;19.47;;;9.50;;
61407;SDS011;47274;43.054;25.146;2023-04-06T08:21:55;17.33;;;8.70;;
61407;SDS011;47274;43.054;25.146;2023-04-06T08:24:21;18.53;;;9.03;;
61407;SDS011;47274;43.054;25.146;2023-04-06T08:33:57;20.97;;;10.47;;
61407;SDS011;47274;43.054;25.146;2023-04-06T08:36:23;19.50;;;9.80;;
61407;SDS011;47274;43.054;25.146;2023-04-06T08:38:49;20.63;;;9.70;;
61407;SDS011;47274;43.054;25.146;2023-04-06T08:41:15;18.43;;;9.07;;
61407;SDS011;47274;43.054;25.146;2023-04-06T08:50:56;18.27;;;9.00;;
61407;SDS011;47274;43.054;25.146;2023-04-06T08:56:42;17.55;;;8.32;;
61407;SDS011;47274;43.054;25.146;2023-04-06T09:10:05;23.38;;;10.35;;
61407;SDS011;47274;43.054;25.146;2023-04-06T09:13:18;32.65;;;16.65;;
61407;SDS011;47274;43.054;25.146;2023-04-06T09:15:44;28.10;;;14.02;;
61407;SDS011;47274;43.054;25.146;2023-04-06T09:18:27;18.95;;;8.82;;
61407;SDS011;47274;43.054;25.146;2023-04-06T09:21:02;19.48;;;9.00;;
61407;SDS011;47274;43.054;25.146;2023-04-06T09:40:56;18.48;;;8.27;;
61407;SDS011;47274;43.054;25.146;2023-04-06T09:44:24;19.23;;;9.15;;
61407;SDS011;47274;43.054;25.146;2023-04-06T09:47:19;17.33;;;8.40;;
61407;SDS011;47274;43.054;25.146;2023-04-06T10:01:15;19.60;;;8.80;;
61407;SDS011;47274;43.054;25.146;2023-04-06T10:07:28;21.83;;;10.07;;
61407;SDS011;47274;43.054;25.146;2023-04-06T10:09:55;17.98;;;8.43;;
61407;SDS011;47274;43.054;25.146;2023-04-06T10:20:23;16.73;;;7.82;;
61407;SDS011;47274;43.054;25.146;2023-04-06T10:29:44;22.40;;;9.55;;
61407;SDS011;47274;43.054;25.146;2023-04-06T10:39:24;17.13;;;7.28;;
61407;SDS011;47274;43.054;25.146;2023-04-06T10:48:15;23.10;;;8.85;;
61407;SDS011;47274;43.054;25.146;2023-04-06T10:54:31;30.60;;;13.82;;
61407;SDS011;47274;43.054;25.146;2023-04-06T10:56:58;32.38;;;14.48;;
61407;SDS011;47274;43.054;25.146;2023-04-06T11:06:48;16.23;;;6.95;;
61407;SDS011;47274;43.054;25.146;2023-04-06T11:13:03;21.98;;;8.93;;
61407;SDS011;47274;43.054;25.146;2023-04-06T11:19:14;21.17;;;8.40;;
61407;SDS011;47274;43.054;25.146;2023-04-06T11:28:08;43.78;;;15.82;;
61407;SDS011;47274;43.054;25.146;2023-04-06T11:30:55;24.20;;;8.68;;
61407;SDS011;47274;43.054;25.146;2023-04-06T11:33:21;17.90;;;7.78;;
61407;SDS011;47274;43.054;25.146;2023-04-06T11:43:28;22.30;;;8.48;;
61407;SDS011;47274;43.054;25.146;2023-04-06T11:53:44;16.35;;;7.07;;
61407;SDS011;47274;43.054;25.146;2023-04-06T12:05:32;13.75;;;6.60;;
61407;SDS011;47274;43.054;25.146;2023-04-06T12:07:59;19.00;;;7.35;;
61407;SDS011;47274;43.054;25.146;2023-04-06T12:10:25;24.52;;;8.57;;
61407;SDS011;47274;43.054;25.146;2023-04-06T12:12:51;17.25;;;7.10;;
61407;SDS011;47274;43.054;25.146;2023-04-06T12:21:17;13.68;;;6.15;;
61407;SDS011;47274;43.054;25.146;2023-04-06T12:37:10;11.52;;;5.57;;
61407;SDS011;47274;43.054;25.146;2023-04-06T12:40:27;13.73;;;5.35;;
61407;SDS011;47274;43.054;25.146;2023-04-06T12:42:57;15.90;;;6.07;;
61407;SDS011;47274;43.054;25.146;2023-04-06T12:45:31;11.70;;;5.43;;
61407;SDS011;47274;43.054;25.146;2023-04-06T12:51:39;15.27;;;6.18;;
61407;SDS011;47274;43.054;25.146;2023-04-06T12:54:05;10.65;;;5.15;;
61407;SDS011;47274;43.054;25.146;2023-04-06T13:01:43;12.57;;;6.20;;
61407;SDS011;47274;43.054;25.146;2023-04-06T13:04:29;13.30;;;5.50;;
61407;SDS011;47274;43.054;25.146;2023-04-06T13:13:41;12.43;;;5.50;;
61407;SDS011;47274;43.054;25.146;2023-04-06T13:16:07;9.40;;;5.25;;
61407;SDS011;47274;43.054;25.146;2023-04-06T13:28:11;12.70;;;5.72;;
61407;SDS011;47274;43.054;25.146;2023-04-06T13:37:55;10.48;;;5.32;;
61407;SDS011;47274;43.054;25.146;2023-04-06T13:43:15;9.45;;;4.97;;
61407;SDS011;47274;43.054;25.146;2023-04-06T13:46:01;11.40;;;5.70;;
61407;SDS011;47274;43.054;25.146;2023-04-06T13:48:27;14.38;;;6.38;;
61407;SDS011;47274;43.054;25.146;2023-04-06T13:52:20;13.57;;;5.90;;
61407;SDS011;47274;43.054;25.146;2023-04-06T14:05:00;13.00;;;6.28;;
61407;SDS011;47274;43.054;25.146;2023-04-06T14:07:47;19.55;;;7.45;;
61407;SDS011;47274;43.054;25.146;2023-04-06T14:10:16;14.80;;;6.53;;
61407;SDS011;47274;43.054;25.146;2023-04-06T14:13:31;12.85;;;6.03;;
61407;SDS011;47274;43.054;25.146;2023-04-06T14:15:57;15.75;;;6.75;;
61407;SDS011;47274;43.054;25.146;2023-04-06T14:26:07;18.17;;;7.80;;
61407;SDS011;47274;43.054;25.146;2023-04-06T14:42:13;16.10;;;7.80;;
61407;SDS011;47274;43.054;25.146;2023-04-06T14:44:55;17.40;;;7.68;;
61407;SDS011;47274;43.054;25.146;2023-04-06T14:47:29;21.92;;;9.65;;
61407;SDS011;47274;43.054;25.146;2023-04-06T15:01:36;26.50;;;11.07;;
61407;SDS011;47274;43.054;25.146;2023-04-06T15:07:14;17.27;;;7.68;;
61407;SDS011;47274;43.054;25.146;2023-04-06T15:13:15;15.93;;;7.40;;
61407;SDS011;47274;43.054;25.146;2023-04-06T15:19:45;14.67;;;6.57;;
61407;SDS011;47274;43.054;25.146;2023-04-06T15:40:01;13.88;;;7.05;;
61407;SDS011;47274;43.054;25.146;2023-04-06T15:43:28;17.50;;;7.30;;
61407;SDS011;47274;43.054;25.146;2023-04-06T15:49:46;14.60;;;7.17;;
61407;SDS011;47274;43.054;25.146;2023-04-06T15:56:41;15.77;;;6.90;;
61407;SDS011;47274;43.054;25.146;2023-04-06T16:02:12;18.67;;;7.20;;
61407;SDS011;47274;43.054;25.146;2023-04-06T16:05:31;15.93;;;7.33;;
61407;SDS011;47274;43.054;25.146;2023-04-06T16:08:17;16.53;;;8.07;;
61407;SDS011;47274;43.054;25.146;2023-04-06T16:10:46;15.33;;;7.27;;
61407;SDS011;47274;43.054;25.146;2023-04-06T16:16:19;16.93;;;8.40;;
61407;SDS011;47274;43.054;25.146;2023-04-06T16:33:12;18.90;;;9.03;;
61407;SDS011;47274;43.054;25.146;2023-04-06T16:43:13;22.03;;;10.77;;
61407;SDS011;47274;43.054;25.146;2023-04-06T17:07:31;21.97;;;12.33;;
61407;SDS011;47274;43.054;25.146;2023-04-06T17:30:54;23.70;;;11.43;;
61407;SDS011;47274;43.054;25.146;2023-04-06T17:37:05;20.57;;;11.00;;
61407;SDS011;47274;43.054;25.146;2023-04-06T17:39:30;21.60;;;11.27;;
61407;SDS011;47274;43.054;25.146;2023-04-06T17:42:11;21.30;;;11.57;;
61407;SDS011;47274;43.054;25.146;2023-04-06T17:47:58;19.87;;;11.03;;
61407;SDS011;47274;43.054;25.146;2023-04-06T17:51:07;22.20;;;11.93;;
61407;SDS011;47274;43.054;25.146;2023-04-06T17:53:55;21.57;;;11.93;;
61407;SDS011;47274;43.054;25.146;2023-04-06T17:56:20;20.63;;;11.23;;
61407;SDS011;47274;43.054;25.146;2023-04-06T17:58:53;19.80;;;10.77;;
61407;SDS011;47274;43.054;25.146;2023-04-06T18:01:21;20.93;;;11.40;;
61407;SDS011;47274;43.054;25.146;2023-04-06T18:03:46;20.90;;;10.83;;
61407;SDS011;47274;43.054;25.146;2023-04-06T18:06:13;21.33;;;10.90;;
61407;SDS011;47274;43.054;25.146;2023-04-06T18:08:41;20.50;;;10.93;;
61407;SDS011;47274;43.054;25.146;2023-04-06T18:11:13;18.97;;;10.27;;
61407;SDS011;47274;43.054;25.146;2023-04-06T18:13:43;21.30;;;11.27;;
61407;SDS011;47274;43.054;25.146;2023-04-06T18:19:31;21.13;;;11.67;;
61407;SDS011;47274;43.054;25.146;2023-04-06T18:22:14;21.07;;;11.77;;
61407;SDS011;47274;43.054;25.146;2023-04-06T18:25:06;21.87;;;11.70;;
61407;SDS011;47274;43.054;25.146;2023-04-06T18:31:54;21.27;;;10.97;;
61407;SDS011;47274;43.054;25.146;2023-04-06T18:35:13;23.10;;;12.80;;
61407;SDS011;47274;43.054;25.146;2023-04-06T18:44:45;21.80;;;11.50;;
61407;SDS011;47274;43.054;25.146;2023-04-06T18:48:18;22.80;;;12.57;;
61407;SDS011;47274;43.054;25.146;2023-04-06T18:51:18;21.67;;;12.13;;
61407;SDS011;47274;43.054;25.146;2023-04-06T18:53:46;23.27;;;12.77;;
61407;SDS011;47274;43.054;25.146;2023-04-06T18:56:15;22.67;;;13.00;;
61407;SDS011;47274;43.054;25.146;2023-04-06T18:58:43;21.87;;;11.67;;
61407;SDS011;47274;43.054;25.146;2023-04-06T19:01:10;24.43;;;12.60;;
61407;SDS011;47274;43.054;25.146;2023-04-06T19:03:54;23.57;;;13.67;;
61407;SDS011;47274;43.054;25.146;2023-04-06T19:06:21;27.13;;;17.30;;
61407;SDS011;47274;43.054;25.146;2023-04-06T19:08:48;25.47;;;15.70;;
61407;SDS011;47274;43.054;25.146;2023-04-06T19:11:14;23.27;;;14.20;;
61407;SDS011;47274;43.054;25.146;2023-04-06T19:13:41;25.33;;;15.33;;
61407;SDS011;47274;43.054;25.146;2023-04-06T19:16:14;23.30;;;13.43;;
61407;SDS011;47274;43.054;25.146;2023-04-06T19:18:40;22.20;;;13.10;;
61407;SDS011;47274;43.054;25.146;2023-04-06T19:21:19;29.20;;;17.83;;
61407;SDS011;47274;43.054;25.146;2023-04-06T19:23:48;25.87;;;14.13;;
61407;SDS011;47274;43.054;25.146;2023-04-06T19:26:15;25.23;;;15.50;;
61407;SDS011;47274;43.054;25.146;2023-04-06T19:28:43;23.77;;;13.47;;
61407;SDS011;47274;43.054;25.146;2023-04-06T19:31:10;23.17;;;13.47;;
61407;SDS011;47274;43.054;25.146;2023-04-06T19:33:39;22.23;;;12.33;;
61407;SDS011;47274;43.054;25.146;2023-04-06T19:36:05;26.07;;;13.40;;
61407;SDS011;47274;43.054;25.146;2023-04-06T19:38:32;25.10;;;13.07;;
61407;SDS011;47274;43.054;25.146;2023-04-06T19:40:59;24.60;;;12.97;;
61407;SDS011;47274;43.054;25.146;2023-04-06T19:43:25;26.97;;;15.43;;
61407;SDS011;47274;43.054;25.146;2023-04-06T19:45:51;22.87;;;12.40;;
61407;SDS011;47274;43.054;25.146;2023-04-06T19:48:17;24.17;;;13.30;;
61407;SDS011;47274;43.054;25.146;2023-04-06T19:50:43;24.23;;;12.97;;
61407;SDS011;47274;43.054;25.146;2023-04-06T19:53:10;25.17;;;14.20;;
61407;SDS011;47274;43.054;25.146;2023-04-06T19:55:36;23.23;;;13.00;;
61407;SDS011;47274;43.054;25.146;2023-04-06T19:58:02;23.17;;;13.03;;
61407;SDS011;47274;43.054;25.146;2023-04-06T20:00:29;24.43;;;12.60;;
61407;SDS011;47274;43.054;25.146;2023-04-06T20:02:55;22.70;;;12.20;;
61407;SDS011;47274;43.054;25.146;2023-04-06T20:05:21;21.57;;;11.83;;
61407;SDS011;47274;43.054;25.146;2023-04-06T20:07:47;23.37;;;12.90;;
61407;SDS011;47274;43.054;25.146;2023-04-06T20:10:14;22.37;;;11.93;;
61407;SDS011;47274;43.054;25.146;2023-04-06T20:12:43;22.63;;;12.27;;
61407;SDS011;47274;43.054;25.146;2023-04-06T20:15:10;21.87;;;12.03;;
61407;SDS011;47274;43.054;25.146;2023-04-06T20:17:41;23.73;;;13.00;;
61407;SDS011;47274;43.054;25.146;2023-04-06T20:20:08;23.13;;;12.90;;
61407;SDS011;47274;43.054;25.146;2023-04-06T20:22:37;25.40;;;14.77;;
61407;SDS011;47274;43.054;25.146;2023-04-06T20:25:03;30.43;;;17.13;;
61407;SDS011;47274;43.054;25.146;2023-04-06T20:31:04;28.17;;;15.00;;
61407;SDS011;47274;43.054;25.146;2023-04-06T20:33:32;24.67;;;14.57;;
61407;SDS011;47274;43.054;25.146;2023-04-06T20:35:59;29.33;;;16.23;;
61407;SDS011;47274;43.054;25.146;2023-04-06T20:38:27;30.20;;;16.20;;
61407;SDS011;47274;43.054;25.146;2023-04-06T20:41:06;32.93;;;17.63;;
61407;SDS011;47274;43.054;25.146;2023-04-06T20:43:35;23.93;;;12.87;;
61407;SDS011;47274;43.054;25.146;2023-04-06T20:49:39;28.23;;;14.37;;
61407;SDS011;47274;43.054;25.146;2023-04-06T20:52:40;22.90;;;12.20;;
61407;SDS011;47274;43.054;25.146;2023-04-06T20:55:24;25.90;;;14.23;;
61407;SDS011;47274;43.054;25.146;2023-04-06T20:58:35;25.73;;;12.57;;
61407;SDS011;47274;43.054;25.146;2023-04-06T21:01:03;27.80;;;12.80;;
61407;SDS011;47274;43.054;25.146;2023-04-06T21:03:36;23.08;;;12.25;;
61407;SDS011;47274;43.054;25.146;2023-04-06T21:06:02;27.13;;;14.53;;
61407;SDS011;47274;43.054;25.146;2023-04-06T21:08:27;25.23;;;13.20;;
61407;SDS011;47274;43.054;25.146;2023-04-06T21:10:53;26.77;;;13.60;;
61407;SDS011;47274;43.054;25.146;2023-04-06T21:13:19;24.40;;;12.37;;
61407;SDS011;47274;43.054;25.146;2023-04-06T21:15:45;25.47;;;13.00;;
61407;SDS011;47274;43.054;25.146;2023-04-06T21:18:11;26.27;;;13.67;;
61407;SDS011;47274;43.054;25.146;2023-04-06T21:20:37;28.57;;;14.63;;
61407;SDS011;47274;43.054;25.146;2023-04-06T21:23:04;22.00;;;11.43;;
61407;SDS011;47274;43.054;25.146;2023-04-06T21:25:30;28.30;;;14.30;;
61407;SDS011;47274;43.054;25.146;2023-04-06T21:27:55;28.17;;;14.10;;
61407;SDS011;47274;43.054;25.146;2023-04-06T21:30:21;29.13;;;14.20;;
61407;SDS011;47274;43.054;25.146;2023-04-06T21:32:47;25.87;;;12.10;;
61407;SDS011;47274;43.054;25.146;2023-04-06T21:35:12;27.27;;;12.73;;
61407;SDS011;47274;43.054;25.146;2023-04-06T21:37:38;26.53;;;12.93;;
61407;SDS011;47274;43.054;25.146;2023-04-06T21:40:04;24.10;;;12.13;;
61407;SDS011;47274;43.054;25.146;2023-04-06T21:42:30;22.67;;;11.93;;
61407;SDS011;47274;43.054;25.146;2023-04-06T21:44:56;24.67;;;12.43;;
61407;SDS011;47274;43.054;25.146;2023-04-06T21:47:22;30.00;;;14.87;;
61407;SDS011;47274;43.054;25.146;2023-04-06T21:49:48;33.47;;;17.03;;
61407;SDS011;47274;43.054;25.146;2023-04-06T21:52:13;23.83;;;12.50;;
61407;SDS011;47274;43.054;25.146;2023-04-06T21:54:57;22.23;;;11.00;;
61407;SDS011;47274;43.054;25.146;2023-04-06T21:57:32;20.65;;;9.60;;
61407;SDS011;47274;43.054;25.146;2023-04-06T21:59:57;21.33;;;9.97;;
61407;SDS011;47274;43.054;25.146;2023-04-06T22:02:26;19.53;;;9.73;;
61407;SDS011;47274;43.054;25.146;2023-04-06T22:04:53;19.87;;;9.73;;
61407;SDS011;47274;43.054;25.146;2023-04-06T22:07:19;25.83;;;11.07;;
61407;SDS011;47274;43.054;25.146;2023-04-06T22:09:47;21.50;;;10.40;;
61407;SDS011;47274;43.054;25.146;2023-04-06T22:12:15;20.63;;;10.03;;
61407;SDS011;47274;43.054;25.146;2023-04-06T22:14:41;21.90;;;11.03;;
61407;SDS011;47274;43.054;25.146;2023-04-06T22:17:09;21.67;;;10.73;;
61407;SDS011;47274;43.054;25.146;2023-04-06T22:19:35;27.00;;;14.20;;
61407;SDS011;47274;43.054;25.146;2023-04-06T22:22:01;21.10;;;10.37;;
61407;SDS011;47274;43.054;25.146;2023-04-06T22:24:27;20.47;;;9.67;;
61407;SDS011;47274;43.054;25.146;2023-04-06T22:26:52;20.87;;;10.17;;
61407;SDS011;47274;43.054;25.146;2023-04-06T22:29:18;21.07;;;11.00;;
61407;SDS011;47274;43.054;25.146;2023-04-06T22:31:44;21.80;;;10.40;;
61407;SDS011;47274;43.054;25.146;2023-04-06T22:34:10;23.20;;;11.30;;
61407;SDS011;47274;43.054;25.146;2023-04-06T22:36:35;19.50;;;10.10;;
61407;SDS011;47274;43.054;25.146;2023-04-06T22:39:01;20.63;;;11.23;;
61407;SDS011;47274;43.054;25.146;2023-04-06T22:41:27;22.33;;;11.50;;
61407;SDS011;47274;43.054;25.146;2023-04-06T22:43:54;23.40;;;12.53;;
61407;SDS011;47274;43.054;25.146;2023-04-06T22:46:20;21.97;;;11.03;;
61407;SDS011;47274;43.054;25.146;2023-04-06T22:48:46;23.17;;;12.30;;
61407;SDS011;47274;43.054;25.146;2023-04-06T22:51:12;21.20;;;11.60;;
61407;SDS011;47274;43.054;25.146;2023-04-06T22:53:38;22.03;;;11.27;;
61407;SDS011;47274;43.054;25.146;2023-04-06T22:56:04;26.03;;;13.20;;
61407;SDS011;47274;43.054;25.146;2023-04-06T22:58:30;21.57;;;11.80;;
61407;SDS011;47274;43.054;25.146;2023-04-06T23:00:55;22.40;;;11.87;;
61407;SDS011;47274;43.054;25.146;2023-04-06T23:03:21;23.93;;;14.30;;
61407;SDS011;47274;43.054;25.146;2023-04-06T23:05:47;22.37;;;12.50;;
61407;SDS011;47274;43.054;25.146;2023-04-06T23:08:13;20.93;;;11.77;;
61407;SDS011;47274;43.054;25.146;2023-04-06T23:10:38;22.97;;;12.20;;
61407;SDS011;47274;43.054;25.146;2023-04-06T23:13:09;22.10;;;11.87;;
61407;SDS011;47274;43.054;25.146;2023-04-06T23:15:35;19.83;;;11.70;;
61407;SDS011;47274;43.054;25.146;2023-04-06T23:18:01;22.03;;;11.73;;
61407;SDS011;47274;43.054;25.146;2023-04-06T23:20:27;22.23;;;12.10;;
61407;SDS011;47274;43.054;25.146;2023-04-06T23:22:53;22.37;;;12.67;;
61407;SDS011;47274;43.054;25.146;2023-04-06T23:25:19;21.73;;;11.20;;
61407;SDS011;47274;43.054;25.146;2023-04-06T23:27:45;21.27;;;11.80;;
61407;SDS011;47274;43.054;25.146;2023-04-06T23:30:10;20.90;;;11.83;;
61407;SDS011;47274;43.054;25.146;2023-04-06T23:32:36;21.83;;;12.67;;
61407;SDS011;47274;43.054;25.146;2023-04-06T23:35:02;22.23;;;11.23;;